createdAt,value
2023-01-21T00:02:20.868Z,-2.88
2023-01-21T00:05:06.479Z,-2.88
2023-01-21T00:07:51.584Z,-2.88
2023-01-21T00:10:37.090Z,-2.74
2023-01-21T00:13:22.306Z,-2.78
2023-01-21T00:16:08.224Z,-2.73
2023-01-21T00:18:53.630Z,-2.89
2023-01-21T00:21:38.541Z,-2.85
2023-01-21T00:24:23.417Z,-2.94
2023-01-21T00:27:08.422Z,-3.04
2023-01-21T00:29:53.368Z,-3.16
2023-01-21T00:32:38.303Z,-3.20
2023-01-21T00:35:23.157Z,-3.25
2023-01-21T00:38:08.029Z,-3.21
2023-01-21T00:40:52.834Z,-3.27
2023-01-21T00:43:38.158Z,-3.42
2023-01-21T00:46:23.121Z,-3.43
2023-01-21T00:49:08.425Z,-3.42
2023-01-21T00:51:53.286Z,-3.36
2023-01-21T00:54:38.083Z,-3.43
2023-01-21T00:57:23.003Z,-3.53
2023-01-21T01:00:08.947Z,-3.52
2023-01-21T01:02:54.166Z,-3.57
2023-01-21T01:05:39.411Z,-3.66
2023-01-21T01:08:24.729Z,-3.69
2023-01-21T01:11:11.095Z,-3.71
2023-01-21T01:13:56.313Z,-3.70
2023-01-21T01:16:41.293Z,-3.63
2023-01-21T01:19:26.580Z,-3.61
2023-01-21T01:22:11.775Z,-3.63
2023-01-21T01:24:57.228Z,-3.62
2023-01-21T01:27:42.663Z,-3.72
2023-01-21T01:30:28.193Z,-3.71
2023-01-21T01:33:13.573Z,-3.82
2023-01-21T01:36:03.857Z,-4.05
2023-01-21T01:38:49.944Z,-4.14
2023-01-21T01:41:36.360Z,-4.32
2023-01-21T01:44:54.316Z,-4.28
2023-01-21T01:47:53.125Z,-4.22
2023-01-21T01:50:38.619Z,-4.08
2023-01-21T01:53:25.628Z,-4.10
2023-01-21T01:56:10.894Z,-4.02
2023-01-21T01:58:56.316Z,-4.09
2023-01-21T02:01:41.676Z,-4.13
2023-01-21T02:04:31.691Z,-4.01
2023-01-21T02:07:18.992Z,-4.08
2023-01-21T02:10:05.924Z,-4.05
2023-01-21T02:12:51.194Z,-3.89
2023-01-21T02:15:46.153Z,-4.00
2023-01-21T02:18:40.418Z,-4.01
2023-01-21T02:21:52.747Z,-4.19
2023-01-21T02:24:56.874Z,-4.16
2023-01-21T02:28:13.493Z,-4.22
2023-01-21T02:31:17.354Z,-4.20
2023-01-21T02:34:17.854Z,-4.03
2023-01-21T02:37:37.239Z,-4.15
2023-01-21T02:40:37.450Z,-4.26
2023-01-21T02:43:31.333Z,-4.22
2023-01-21T02:46:31.298Z,-4.28
2023-01-21T02:49:34.552Z,-4.31
2023-01-21T02:52:22.953Z,-4.28
2023-01-21T02:55:16.900Z,-4.20
2023-01-21T02:58:07.988Z,-4.14
2023-01-21T03:00:58.167Z,-4.19
2023-01-21T03:03:58.525Z,-4.21
2023-01-21T03:06:53.007Z,-4.22
2023-01-21T03:09:38.603Z,-4.17
2023-01-21T03:12:35.183Z,-4.18
2023-01-21T03:15:26.759Z,-4.22
2023-01-21T03:18:22.884Z,-4.26
2023-01-21T03:21:12.679Z,-4.29
2023-01-21T03:23:59.264Z,-4.34
2023-01-21T03:26:49.363Z,-4.40
2023-01-21T03:29:35.860Z,-4.53
2023-01-21T03:32:22.786Z,-4.49
2023-01-21T03:35:08.854Z,-4.44
2023-01-21T03:37:58.493Z,-4.37
2023-01-21T03:41:07.225Z,-4.42
2023-01-21T03:43:52.580Z,-4.48
2023-01-21T03:47:01.756Z,-4.46
2023-01-21T03:49:53.136Z,-4.44
2023-01-21T03:52:43.420Z,-4.51
2023-01-21T03:55:28.408Z,-4.52
2023-01-21T03:58:13.236Z,-4.45
2023-01-21T04:00:58.190Z,-4.42
2023-01-21T04:03:43.594Z,-4.40
2023-01-21T04:06:28.779Z,-4.35
2023-01-21T04:09:13.738Z,-4.28
2023-01-21T04:11:58.627Z,-4.28
2023-01-21T04:14:43.976Z,-4.33
2023-01-21T04:17:29.597Z,-4.09
2023-01-21T04:20:14.765Z,-3.89
2023-01-21T04:23:00.147Z,-3.87
2023-01-21T04:25:48.159Z,-3.68
2023-01-21T04:28:34.088Z,-3.61
2023-01-21T04:31:18.981Z,-3.50
2023-01-21T04:34:04.281Z,-3.42
2023-01-21T04:36:49.570Z,-3.49
2023-01-21T04:39:35.074Z,-3.67
2023-01-21T04:42:20.095Z,-3.71
2023-01-21T04:45:07.389Z,-3.74
2023-01-21T04:47:52.347Z,-3.69
2023-01-21T04:50:37.798Z,-3.66
2023-01-21T04:53:23.010Z,-3.56
2023-01-21T04:56:08.455Z,-3.44
2023-01-21T04:58:53.401Z,-3.44
2023-01-21T05:01:38.350Z,-3.30
2023-01-21T05:04:23.618Z,-3.30
2023-01-21T05:07:08.760Z,-3.10
2023-01-21T05:09:53.922Z,-3.24
2023-01-21T05:12:39.325Z,-3.22
2023-01-21T05:15:24.203Z,-3.18
2023-01-21T05:18:09.557Z,-3.10
2023-01-21T05:20:54.559Z,-2.98
2023-01-21T05:23:39.412Z,-2.88
2023-01-21T05:26:24.938Z,-2.83
2023-01-21T05:29:10.372Z,-2.74
2023-01-21T05:31:55.589Z,-2.50
2023-01-21T05:34:40.971Z,-2.47
2023-01-21T05:37:25.713Z,-2.43
2023-01-21T05:40:11.298Z,-2.34
2023-01-21T05:42:56.278Z,-2.36
2023-01-21T05:45:42.116Z,-2.28
2023-01-21T05:48:27.331Z,-2.20
2023-01-21T05:51:13.132Z,-2.24
2023-01-21T05:53:58.493Z,-2.18
2023-01-21T05:56:43.271Z,-2.13
2023-01-21T05:59:28.178Z,-2.09
2023-01-21T06:02:13.617Z,-2.13
2023-01-21T06:04:59.048Z,-2.05
2023-01-21T06:07:43.985Z,-2.01
2023-01-21T06:10:29.294Z,-1.97
2023-01-21T06:13:15.839Z,-1.87
2023-01-21T06:16:01.215Z,-1.86
2023-01-21T06:18:46.703Z,-1.67
2023-01-21T06:21:31.869Z,-1.66
2023-01-21T06:24:17.289Z,-1.72
2023-01-21T06:27:02.594Z,-1.72
2023-01-21T06:29:47.901Z,-1.62
2023-01-21T06:32:33.443Z,-1.66
2023-01-21T06:35:18.725Z,-1.69
2023-01-21T06:38:03.958Z,-1.65
2023-01-21T06:40:49.345Z,-1.58
2023-01-21T06:43:34.837Z,-1.44
2023-01-21T06:46:20.241Z,-1.29
2023-01-21T06:49:05.629Z,-1.32
2023-01-21T06:51:50.993Z,-1.21
2023-01-21T06:54:36.321Z,-1.07
2023-01-21T06:57:21.764Z,-1.05
2023-01-21T07:00:08.239Z,-0.99
2023-01-21T07:02:58.375Z,-1.13
2023-01-21T07:05:43.347Z,-1.07
2023-01-21T07:08:28.212Z,-0.97
2023-01-21T07:11:13.663Z,-1.09
2023-01-21T07:13:58.952Z,-1.04
2023-01-21T07:16:43.793Z,-0.87
2023-01-21T07:19:29.214Z,-0.87
2023-01-21T07:22:14.614Z,-0.81
2023-01-21T07:24:59.562Z,-0.73
2023-01-21T07:27:44.653Z,-0.69
2023-01-21T07:30:29.837Z,-0.72
2023-01-21T07:33:14.767Z,-0.61
2023-01-21T07:35:59.668Z,-0.62
2023-01-21T07:38:44.884Z,-0.68
2023-01-21T07:41:30.364Z,-0.48
2023-01-21T07:44:15.786Z,-0.44
2023-01-21T07:47:00.951Z,-0.49
2023-01-21T07:49:51.151Z,-0.49
2023-01-21T07:52:36.217Z,-0.60
2023-01-21T07:55:22.040Z,-0.57
2023-01-21T07:58:06.976Z,-0.60
2023-01-21T08:00:51.753Z,-0.62
2023-01-21T08:03:37.331Z,-0.51
2023-01-21T08:06:22.555Z,-0.55
2023-01-21T08:09:09.172Z,-0.54
2023-01-21T08:11:54.311Z,-0.59
2023-01-21T08:14:39.765Z,-0.54
2023-01-21T08:17:24.708Z,-0.47
2023-01-21T08:20:11.321Z,-0.47
2023-01-21T08:22:59.910Z,-0.42
2023-01-21T08:25:44.748Z,-0.44
2023-01-21T08:28:29.716Z,-0.36
2023-01-21T08:31:15.041Z,-0.24
2023-01-21T08:34:00.303Z,-0.34
2023-01-21T08:36:45.677Z,-0.24
2023-01-21T08:39:30.882Z,-0.21
2023-01-21T08:42:16.343Z,-0.11
2023-01-21T08:45:01.340Z,-0.18
2023-01-21T08:47:46.583Z,-0.16
2023-01-21T08:50:31.545Z,-0.14
2023-01-21T08:53:16.815Z,-0.14
2023-01-21T08:56:03.792Z,-0.12
2023-01-21T08:58:54.134Z,-0.05
2023-01-21T09:01:38.966Z,0.00
2023-01-21T09:04:23.957Z,0.07
2023-01-21T09:07:08.851Z,0.10
2023-01-21T09:09:53.994Z,0.20
2023-01-21T09:12:42.151Z,0.20
2023-01-21T09:15:27.033Z,0.19
2023-01-21T09:18:12.408Z,0.23
2023-01-21T09:21:02.743Z,0.21
2023-01-21T09:23:48.041Z,0.35
2023-01-21T09:26:33.044Z,0.34
2023-01-21T09:29:18.303Z,0.40
2023-01-21T09:32:03.751Z,0.38
2023-01-21T09:34:48.884Z,0.47
2023-01-21T09:37:33.793Z,0.37
2023-01-21T09:40:18.944Z,0.41
2023-01-21T09:43:13.432Z,0.54
2023-01-21T09:46:04.032Z,0.55
2023-01-21T09:48:50.493Z,0.50
2023-01-21T09:51:50.733Z,0.43
2023-01-21T09:54:38.938Z,0.61
2023-01-21T09:57:39.164Z,0.58
2023-01-21T10:00:36.642Z,0.47
2023-01-21T10:03:52.613Z,0.34
2023-01-21T10:06:49.572Z,0.30
2023-01-21T10:10:09.902Z,0.27
2023-01-21T10:13:22.580Z,0.26
2023-01-21T10:16:10.932Z,0.18
2023-01-21T10:18:58.795Z,0.15
2023-01-21T10:22:05.692Z,0.22
2023-01-21T10:24:56.089Z,0.26
2023-01-21T10:27:44.510Z,0.30
2023-01-21T10:30:39.182Z,0.26
2023-01-21T10:33:26.638Z,0.27
2023-01-21T10:36:23.867Z,0.26
2023-01-21T10:39:19.724Z,0.39
2023-01-21T10:42:19.029Z,0.31
2023-01-21T10:45:25.514Z,0.29
2023-01-21T10:48:19.441Z,0.41
2023-01-21T10:51:21.745Z,0.55
2023-01-21T10:54:29.544Z,0.53
2023-01-21T10:57:14.224Z,0.56
2023-01-21T11:00:01.924Z,0.74
2023-01-21T11:02:52.430Z,0.62
2023-01-21T11:05:38.239Z,0.61
2023-01-21T11:08:26.143Z,0.69
2023-01-21T11:11:13.009Z,0.71
2023-01-21T11:13:58.780Z,0.67
2023-01-21T11:16:47.946Z,0.55
2023-01-21T11:19:33.044Z,0.56
2023-01-21T11:22:21.467Z,0.62
2023-01-21T11:25:25.119Z,0.68
2023-01-21T11:28:26.107Z,0.62
2023-01-21T11:31:15.634Z,0.73
2023-01-21T11:34:06.685Z,0.75
2023-01-21T11:37:05.614Z,0.72
2023-01-21T11:39:55.665Z,0.70
2023-01-21T11:42:52.126Z,0.69
2023-01-21T11:45:37.131Z,0.76
2023-01-21T11:48:22.410Z,0.80
2023-01-21T11:51:08.013Z,0.72
2023-01-21T11:54:08.068Z,0.79
2023-01-21T11:56:57.690Z,0.79
2023-01-21T11:59:47.053Z,0.74
2023-01-21T12:02:38.879Z,0.87
2023-01-21T12:05:34.263Z,0.85
2023-01-21T12:08:24.017Z,0.96
2023-01-21T12:11:09.132Z,0.91
2023-01-21T12:14:03.533Z,0.89
2023-01-21T12:17:10.162Z,0.83
2023-01-21T12:20:04.388Z,0.88
2023-01-21T12:23:18.252Z,0.88
2023-01-21T12:26:22.797Z,1.00
2023-01-21T12:29:24.877Z,0.93
2023-01-21T12:32:54.277Z,0.92
2023-01-21T12:35:45.889Z,0.87
2023-01-21T12:38:38.641Z,1.01
2023-01-21T12:41:29.560Z,0.89
2023-01-21T12:44:33.739Z,0.85
2023-01-21T12:47:29.531Z,0.87
2023-01-21T12:50:23.815Z,0.87
2023-01-21T12:53:39.119Z,0.87
2023-01-21T12:56:43.580Z,1.00
2023-01-21T12:59:46.952Z,1.05
2023-01-21T13:02:52.405Z,1.08
2023-01-21T13:06:00.449Z,1.03
2023-01-21T13:09:03.201Z,1.13
2023-01-21T13:12:10.837Z,1.14
2023-01-21T13:15:24.602Z,1.31
2023-01-21T13:18:22.477Z,1.17
2023-01-21T13:21:31.477Z,1.28
2023-01-21T13:24:32.634Z,1.30
2023-01-21T13:27:20.590Z,1.24
2023-01-21T13:30:20.736Z,1.33
2023-01-21T13:33:30.958Z,1.38
2023-01-21T13:36:48.296Z,1.18
2023-01-21T13:39:47.579Z,1.26
2023-01-21T13:42:51.102Z,1.29
2023-01-21T13:46:11.658Z,1.40
2023-01-21T13:49:12.847Z,1.28
2023-01-21T13:52:42.317Z,1.44
2023-01-21T13:55:52.365Z,1.40
2023-01-21T13:58:40.308Z,1.43
2023-01-21T14:02:06.583Z,1.47
2023-01-21T14:05:29.970Z,1.38
2023-01-21T14:08:41.056Z,1.31
2023-01-21T14:11:40.929Z,1.31
2023-01-21T14:14:38.274Z,1.24
2023-01-21T14:17:48.057Z,1.12
2023-01-21T14:20:46.459Z,1.24
2023-01-21T14:24:11.146Z,1.29
2023-01-21T14:27:19.732Z,1.34
2023-01-21T14:30:07.993Z,1.33
2023-01-21T14:32:57.621Z,1.25
2023-01-21T14:36:00.800Z,1.42
2023-01-21T14:39:06.456Z,1.57
2023-01-21T14:42:02.216Z,1.59
2023-01-21T14:44:53.586Z,1.60
2023-01-21T14:47:38.390Z,1.54
2023-01-21T14:50:45.233Z,1.58
2023-01-21T14:53:30.688Z,1.65
2023-01-21T14:56:21.573Z,1.51
2023-01-21T14:59:23.767Z,1.54
2023-01-21T15:02:29.258Z,1.37
2023-01-21T15:05:22.868Z,1.42
2023-01-21T15:08:18.563Z,1.45
2023-01-21T15:11:06.289Z,1.36
2023-01-21T15:14:03.713Z,1.24
2023-01-21T15:16:48.950Z,1.27
2023-01-21T15:19:35.898Z,1.30
2023-01-21T15:22:37.496Z,1.26
2023-01-21T15:25:29.894Z,1.07
2023-01-21T15:28:26.058Z,1.22
2023-01-21T15:31:39.833Z,1.15
2023-01-21T15:34:26.347Z,1.12
2023-01-21T15:37:20.409Z,1.16
2023-01-21T15:40:23.608Z,1.11
2023-01-21T15:43:42.800Z,0.95
2023-01-21T15:46:30.851Z,1.02
2023-01-21T15:49:28.448Z,0.80
2023-01-21T15:52:41.392Z,0.93
2023-01-21T15:55:32.704Z,0.93
2023-01-21T15:58:45.985Z,0.79
2023-01-21T16:01:37.564Z,0.71
2023-01-21T16:04:33.017Z,0.69
2023-01-21T16:07:48.321Z,0.93
2023-01-21T16:10:57.607Z,0.87
2023-01-21T16:14:07.042Z,0.86
2023-01-21T16:17:18.230Z,0.85
2023-01-21T16:20:07.065Z,0.86
2023-01-21T16:22:58.547Z,0.85
2023-01-21T16:25:48.540Z,0.89
2023-01-21T16:28:44.841Z,0.79
2023-01-21T16:31:44.708Z,0.93
2023-01-21T16:34:40.982Z,0.94
2023-01-21T16:37:29.553Z,1.08
2023-01-21T16:40:23.864Z,0.95
2023-01-21T16:43:25.669Z,0.98
2023-01-21T16:46:35.274Z,0.91
2023-01-21T16:49:20.572Z,0.83
2023-01-21T16:52:05.939Z,0.89
2023-01-21T16:54:55.566Z,0.95
2023-01-21T16:57:50.624Z,0.86
2023-01-21T17:00:36.009Z,0.77
2023-01-21T17:03:24.187Z,0.79
2023-01-21T17:06:15.728Z,0.89
2023-01-21T17:09:03.584Z,0.94
2023-01-21T17:11:49.110Z,0.94
2023-01-21T17:14:35.111Z,0.90
2023-01-21T17:17:23.261Z,0.88
2023-01-21T17:20:41.363Z,0.94
2023-01-21T17:23:30.090Z,0.99
2023-01-21T17:26:39.526Z,1.04
2023-01-21T17:29:29.961Z,1.03
2023-01-21T17:32:33.939Z,1.08
2023-01-21T17:35:23.357Z,1.07
2023-01-21T17:38:28.790Z,1.08
2023-01-21T17:41:34.362Z,1.09
2023-01-21T17:44:24.027Z,1.13
2023-01-21T17:47:23.450Z,1.07
2023-01-21T17:50:23.846Z,0.99
2023-01-21T17:53:20.503Z,1.00
2023-01-21T17:56:08.549Z,1.06
2023-01-21T17:58:53.894Z,0.99
2023-01-21T18:01:39.180Z,1.13
2023-01-21T18:04:24.593Z,1.10
2023-01-21T18:07:28.770Z,1.15
2023-01-21T18:10:17.296Z,1.16
2023-01-21T18:13:03.188Z,1.09
2023-01-21T18:15:48.481Z,1.13
2023-01-21T18:18:34.187Z,1.08
2023-01-21T18:21:20.762Z,1.12
2023-01-21T18:24:08.687Z,1.15
2023-01-21T18:26:54.539Z,1.08
2023-01-21T18:29:39.589Z,1.14
2023-01-21T18:32:24.969Z,1.15
2023-01-21T18:35:11.019Z,1.18
2023-01-21T18:37:56.567Z,1.03
2023-01-21T18:40:41.753Z,1.14
2023-01-21T18:43:26.726Z,1.18
2023-01-21T18:46:13.420Z,1.22
2023-01-21T18:48:58.507Z,1.19
2023-01-21T18:51:46.476Z,1.07
2023-01-21T18:54:32.679Z,1.08
2023-01-21T18:57:22.690Z,1.05
2023-01-21T19:00:28.748Z,1.05
2023-01-21T19:03:15.151Z,0.98
2023-01-21T19:06:00.293Z,1.05
2023-01-21T19:08:46.271Z,1.02
2023-01-21T19:11:31.344Z,0.94
2023-01-21T19:14:17.011Z,0.99
2023-01-21T19:17:02.488Z,0.96
2023-01-21T19:19:47.343Z,1.04
2023-01-21T19:22:32.529Z,1.08
2023-01-21T19:25:18.523Z,1.11
2023-01-21T19:28:03.899Z,1.02
2023-01-21T19:30:48.763Z,1.06
2023-01-21T19:33:34.692Z,1.09
2023-01-21T19:36:21.137Z,1.08
2023-01-21T19:39:15.571Z,0.98
2023-01-21T19:42:08.533Z,0.95
2023-01-21T19:44:54.168Z,1.02
2023-01-21T19:47:40.901Z,0.86
2023-01-21T19:50:27.393Z,0.79
2023-01-21T19:53:18.868Z,0.74
2023-01-21T19:56:05.638Z,0.72
2023-01-21T19:58:51.225Z,0.72
2023-01-21T20:01:36.484Z,0.64
2023-01-21T20:04:21.798Z,0.60
2023-01-21T20:07:07.185Z,0.65
2023-01-21T20:09:52.228Z,0.59
2023-01-21T20:12:37.096Z,0.50
2023-01-21T20:15:27.410Z,0.49
2023-01-21T20:18:33.168Z,0.50
2023-01-21T20:21:18.793Z,0.50
2023-01-21T20:24:04.335Z,0.55
2023-01-21T20:29:34.668Z,0.46
2023-01-21T20:32:19.709Z,0.46
2023-01-21T20:35:05.100Z,0.53
2023-01-21T20:37:53.802Z,0.51
2023-01-21T20:40:39.939Z,0.48
2023-01-21T20:43:25.343Z,0.47
2023-01-21T20:46:17.381Z,0.43
2023-01-21T20:49:02.764Z,0.49
2023-01-21T20:51:47.870Z,0.43
2023-01-21T20:54:32.679Z,0.43
2023-01-21T20:57:17.720Z,0.38
2023-01-21T21:00:04.337Z,0.39
2023-01-21T21:02:49.803Z,0.30
2023-01-21T21:05:34.795Z,0.26
2023-01-21T21:08:21.547Z,0.24
2023-01-21T21:11:06.714Z,0.23
2023-01-21T21:13:52.135Z,0.09
2023-01-21T21:16:37.725Z,0.14
2023-01-21T21:19:23.075Z,0.10
2023-01-21T21:22:08.061Z,0.06
2023-01-21T21:24:53.398Z,0.10
2023-01-21T21:27:38.340Z,0.16
2023-01-21T21:30:29.396Z,0.20
2023-01-21T21:33:20.000Z,0.23
2023-01-21T21:36:05.736Z,0.25
2023-01-21T21:38:51.926Z,0.28
2023-01-21T21:41:37.009Z,0.26
2023-01-21T21:44:22.011Z,0.25
2023-01-21T21:47:09.721Z,0.29
2023-01-21T21:49:55.232Z,0.33
2023-01-21T21:52:40.006Z,0.31
2023-01-21T21:55:25.419Z,0.34
2023-01-21T21:58:10.521Z,0.35
2023-01-21T22:00:55.648Z,0.31
2023-01-21T22:03:41.614Z,0.32
2023-01-21T22:06:27.452Z,0.33
2023-01-21T22:09:13.029Z,0.36
2023-01-21T22:11:58.181Z,0.31
2023-01-21T22:14:43.014Z,0.35
2023-01-21T22:17:27.973Z,0.37
2023-01-21T22:20:13.282Z,0.29
2023-01-21T22:22:58.777Z,0.29
2023-01-21T22:25:44.038Z,0.30
2023-01-21T22:28:29.618Z,0.33
2023-01-21T22:31:18.271Z,0.31
2023-01-21T22:34:03.833Z,0.37
2023-01-21T22:36:49.042Z,0.39
2023-01-21T22:39:34.058Z,0.43
2023-01-21T22:42:19.354Z,0.40
2023-01-21T22:45:04.937Z,0.44
2023-01-21T22:47:49.729Z,0.46
2023-01-21T22:50:34.683Z,0.50
2023-01-21T22:53:19.687Z,0.37
2023-01-21T22:56:05.131Z,0.47
2023-01-21T22:58:50.129Z,0.51
2023-01-21T23:01:35.439Z,0.51
2023-01-21T23:04:20.707Z,0.47
2023-01-21T23:07:05.952Z,0.36
2023-01-21T23:09:51.147Z,0.29
2023-01-21T23:12:36.436Z,0.19
2023-01-21T23:15:22.764Z,0.31
2023-01-21T23:18:07.578Z,0.27
2023-01-21T23:20:52.764Z,0.21
2023-01-21T23:23:38.397Z,0.01
2023-01-21T23:26:23.452Z,0.05
2023-01-21T23:29:08.955Z,-0.06
2023-01-21T23:31:54.044Z,0.03
2023-01-21T23:34:39.477Z,0.04
2023-01-21T23:37:24.445Z,0.02
2023-01-21T23:40:09.880Z,0.06
2023-01-21T23:42:55.161Z,0.06
2023-01-21T23:45:40.111Z,0.09
2023-01-21T23:48:25.026Z,0.09
2023-01-21T23:51:12.957Z,0.12
2023-01-21T23:53:58.128Z,0.04
2023-01-21T23:56:43.177Z,0.07
2023-01-21T23:59:27.957Z,0.05
